CheckWX is a tool to help pilots better visualize weather data.  It is not intended as a substitute for an official pre-flight weather briefing.

11:36:54 UTC

CYZR TAF
Sarnia Chris Hadfield Airport
Sarnia, Canada
TAF CYZR 240748Z 2408/2420 29005KT P6SM SKC FM241000 36005KT 6SM BR FEW008 TEMPO 2410/2417 3SM BR BKN008 PROB30 2410/2414 1SM BR OVC005 FM241700 01007KT P6SM FEW010 OVC100 RMK FCST BASED ON AUTO OBS. NXT FCST BY 241400Z

May-24@
08:00 UTC

May-24 @ 08:00 UTC

May-24@
10:00 UTC

May-24 @ 10:00 UTC

TAF CYZR 240748Z 2408/2420 29005KT P6SM SKC

Expired

Wind
  • 290° at 5 KTS
Cloud Levels
  • Clear skies

May-24@
10:00 UTC

May-24 @ 10:00 UTC

May-24@
14:00 UTC

May-24 @ 14:00 UTC

PROB30 2410/2414 1SM BR OVC005

Probable - 30% Likelihood

Probable - 30% Likelihood during this time.

Conditions
Mist
Cloud Levels
  • Overcast at 500' AGL

May-24@
10:00 UTC

May-24 @ 10:00 UTC

May-24@
17:00 UTC

May-24 @ 17:00 UTC

FM241000 36005KT 6SM BR FEW008

From

From Standard forecast or significant change

Wind
  • 360° at 5 KTS
Conditions
Mist
Cloud Levels
  • Few at 800' AGL

May-24@
10:00 UTC

May-24 @ 10:00 UTC

May-24@
17:00 UTC

May-24 @ 17:00 UTC

TEMPO 2410/2417 3SM BR BKN008

Temporary

Temporary Changes expected for less than half the time period

Conditions
Mist
Cloud Levels
  • Broken at 800' AGL

May-24@
17:00 UTC

May-24 @ 17:00 UTC

May-24@
20:00 UTC

May-24 @ 20:00 UTC

FM241700 01007KT P6SM FEW010 OVC100 RMK FCST BASED ON AUTO OBS. NXT FCST BY 241400Z

From

From Standard forecast or significant change

Wind
  • 010° at 7 KTS
Cloud Levels
  • Few at 1,000' AGL
  • Overcast at 10,000' AGL